Time;durP1;ratioP1;P1;durP2;ratioP2;P2;SDS_P1;SDS_P2;PMS_P1;PMS_P2;Temp;Humidity;BMP_temperature;BMP_pressure;BME280_temperature;BME280_humidity;BME280_pressure;Samples;Min_cycle;Max_cycle;Signal;HPM_P1;HPM_P2
2023/07/05 00:01:52;;;;;;;10.40;4.40;;;;;;;;;;5080274;28;20036;-74
2023/07/05 00:04:18;;;;;;;10.50;4.22;;;;;;;;;;5077302;28;20052;-74
2023/07/05 00:06:44;;;;;;;11.52;4.50;;;;;;;;;;5078143;28;20047;-74
2023/07/05 00:09:10;;;;;;;12.10;4.75;;;;;;;;;;5080301;28;20079;-75
2023/07/05 00:11:36;;;;;;;10.82;4.90;;;;;;;;;;5079189;28;20036;-74
2023/07/05 00:14:02;;;;;;;11.48;4.57;;;;;;;;;;5077848;28;20131;-74
2023/07/05 00:16:28;;;;;;;11.43;5.00;;;;;;;;;;5084500;28;20403;-74
2023/07/05 00:18:56;;;;;;;14.43;4.97;;;;;;;;;;5095654;28;20559;-74
2023/07/05 00:21:23;;;;;;;13.32;5.05;;;;;;;;;;5085680;28;20052;-74
2023/07/05 00:23:49;;;;;;;11.05;4.95;;;;;;;;;;5092556;28;20051;-74
2023/07/05 00:26:15;;;;;;;11.38;5.35;;;;;;;;;;5097028;28;20052;-73
2023/07/05 00:28:42;;;;;;;13.32;4.78;;;;;;;;;;5098176;28;20079;-74
2023/07/05 00:31:09;;;;;;;10.63;5.15;;;;;;;;;;5097046;28;20040;-73
2023/07/05 00:33:35;;;;;;;14.13;5.45;;;;;;;;;;5085250;28;20067;-74
2023/07/05 00:36:01;;;;;;;15.23;5.47;;;;;;;;;;5076786;28;20045;-74
2023/07/05 00:38:27;;;;;;;14.48;5.57;;;;;;;;;;5075746;28;20075;-74
2023/07/05 00:40:53;;;;;;;14.05;5.70;;;;;;;;;;5087154;28;20058;-74
2023/07/05 00:43:20;;;;;;;13.30;6.15;;;;;;;;;;5096221;28;20040;-74
2023/07/05 00:45:51;;;;;;;10.60;5.10;;;;;;;;;;5081249;28;20498;-74
2023/07/05 00:48:17;;;;;;;;;;;;;;;;;;5082010;28;20044;-73
2023/07/05 00:50:46;;;;;;;14.43;5.45;;;;;;;;;;5085720;28;19928;-74
2023/07/05 00:53:12;;;;;;;13.55;5.70;;;;;;;;;;5081154;28;20044;-74
2023/07/05 00:55:40;;;;;;;13.13;5.22;;;;;;;;;;5088832;28;20043;-74
2023/07/05 00:58:06;;;;;;;16.30;6.45;;;;;;;;;;5085241;28;20040;-73
2023/07/05 01:00:32;;;;;;;10.65;5.50;;;;;;;;;;5083209;28;20560;-73
2023/07/05 01:03:00;;;;;;;13.88;6.05;;;;;;;;;;5088775;28;20577;-73
2023/07/05 01:05:27;;;;;;;14.35;6.22;;;;;;;;;;5090784;28;20506;-73
2023/07/05 01:07:53;;;;;;;13.95;6.15;;;;;;;;;;5079179;28;20557;-74
2023/07/05 01:10:21;;;;;;;18.52;6.93;;;;;;;;;;5076141;28;20564;-73
2023/07/05 01:12:47;;;;;;;13.70;6.45;;;;;;;;;;5082141;28;20052;-74
2023/07/05 01:15:19;;;;;;;13.32;6.40;;;;;;;;;;5077833;28;20047;-73
2023/07/05 01:17:53;;;;;;;15.30;6.40;;;;;;;;;;5091243;28;20094;-74
2023/07/05 01:20:43;;;;;;;12.60;6.45;;;;;;;;;;5092492;28;20033;-73
2023/07/05 01:23:24;;;;;;;15.30;7.00;;;;;;;;;;5069426;28;20069;-74
2023/07/05 01:25:51;;;;;;;14.50;7.03;;;;;;;;;;5092659;28;20048;-74
2023/07/05 01:28:27;;;;;;;13.70;6.43;;;;;;;;;;5093384;28;20109;-74
2023/07/05 01:31:05;;;;;;;12.63;6.38;;;;;;;;;;5093455;28;20109;-74
2023/07/05 01:33:34;;;;;;;14.85;6.97;;;;;;;;;;5092770;28;20131;-74
2023/07/05 01:36:00;;;;;;;15.48;6.68;;;;;;;;;;5094400;28;20119;-74
2023/07/05 01:38:26;;;;;;;14.27;6.72;;;;;;;;;;5094446;28;20051;-74
2023/07/05 01:40:54;;;;;;;16.65;7.30;;;;;;;;;;5094427;28;20512;-73
2023/07/05 01:43:21;;;;;;;16.00;7.35;;;;;;;;;;5094570;28;20055;-75
2023/07/05 01:45:53;;;;;;;13.98;7.38;;;;;;;;;;5088322;28;20047;-74
2023/07/05 01:48:41;;;;;;;16.35;7.50;;;;;;;;;;5076715;28;20052;-75
2023/07/05 01:51:20;;;;;;;15.05;7.15;;;;;;;;;;5094319;28;20040;-74
2023/07/05 01:53:46;;;;;;;14.57;7.70;;;;;;;;;;5087051;28;20059;-74
2023/07/05 01:56:16;;;;;;;15.30;7.30;;;;;;;;;;5095301;28;20088;-74
2023/07/05 01:58:44;;;;;;;15.88;7.93;;;;;;;;;;5091024;28;20556;-73
2023/07/05 02:01:12;;;;;;;16.60;7.60;;;;;;;;;;5076164;28;20067;-74
2023/07/05 02:03:38;;;;;;;16.10;8.23;;;;;;;;;;5074727;28;20056;-74
2023/07/05 02:06:05;;;;;;;15.98;8.13;;;;;;;;;;5078380;28;20088;-73
2023/07/05 02:08:36;;;;;;;13.93;7.38;;;;;;;;;;5089066;28;20503;-73
2023/07/05 02:11:02;;;;;;;14.07;7.93;;;;;;;;;;5079003;28;20052;-74
2023/07/05 02:13:28;;;;;;;13.05;8.27;;;;;;;;;;5085519;28;20048;-72
2023/07/05 02:15:54;;;;;;;15.85;8.43;;;;;;;;;;5092035;28;20073;-74
2023/07/05 02:18:20;;;;;;;14.35;8.18;;;;;;;;;;5084083;28;20051;-73
2023/07/05 02:20:46;;;;;;;14.20;8.70;;;;;;;;;;5083175;28;20044;-73
2023/07/05 02:23:13;;;;;;;13.80;8.48;;;;;;;;;;5082359;28;20044;-74
2023/07/05 02:25:39;;;;;;;15.15;8.25;;;;;;;;;;5084743;28;20036;-74
2023/07/05 02:28:08;;;;;;;14.88;9.20;;;;;;;;;;5099930;28;20089;-74
2023/07/05 02:30:35;;;;;;;16.23;9.15;;;;;;;;;;5078452;28;20529;-74
2023/07/05 02:33:03;;;;;;;16.67;8.70;;;;;;;;;;5096434;28;20086;-74
2023/07/05 02:35:29;;;;;;;18.00;10.07;;;;;;;;;;5076965;28;20067;-73
2023/07/05 02:37:55;;;;;;;16.13;9.02;;;;;;;;;;5077100;28;20037;-75
2023/07/05 02:40:23;;;;;;;19.13;9.88;;;;;;;;;;5078267;28;20513;-74
2023/07/05 02:42:49;;;;;;;16.67;9.52;;;;;;;;;;5077522;28;20041;-74
2023/07/05 02:45:15;;;;;;;19.33;9.68;;;;;;;;;;5079085;28;20045;-74
2023/07/05 02:47:41;;;;;;;15.23;9.23;;;;;;;;;;5075618;28;20044;-74
2023/07/05 02:50:08;;;;;;;15.95;9.23;;;;;;;;;;5077707;28;20514;-73
2023/07/05 02:52:34;;;;;;;19.02;9.73;;;;;;;;;;5078575;28;20048;-74
2023/07/05 02:55:00;;;;;;;18.42;9.18;;;;;;;;;;5077145;28;20056;-74
2023/07/05 02:57:26;;;;;;;18.23;9.85;;;;;;;;;;5079373;28;20051;-74
2023/07/05 02:59:52;;;;;;;15.10;9.20;;;;;;;;;;5086975;28;20041;-73
2023/07/05 03:02:19;;;;;;;16.10;9.55;;;;;;;;;;5076370;28;20061;-73
2023/07/05 03:04:46;;;;;;;17.95;10.15;;;;;;;;;;5085852;28;20051;-73
2023/07/05 03:07:12;;;;;;;15.38;10.18;;;;;;;;;;5083312;28;20041;-74
2023/07/05 03:09:38;;;;;;;17.30;10.00;;;;;;;;;;5081186;28;20049;-75
2023/07/05 03:12:05;;;;;;;15.43;9.95;;;;;;;;;;5089777;28;20044;-73
2023/07/05 03:14:31;;;;;;;16.00;10.02;;;;;;;;;;5092759;28;20040;-73
2023/07/05 03:16:57;;;;;;;17.33;10.73;;;;;;;;;;5093624;28;20096;-73
2023/07/05 03:19:23;;;;;;;16.33;9.80;;;;;;;;;;5094185;28;20058;-72
2023/07/05 03:21:49;;;;;;;18.70;10.73;;;;;;;;;;5094694;28;20040;-74
2023/07/05 03:24:15;;;;;;;16.80;10.40;;;;;;;;;;5095824;28;20092;-73
2023/07/05 03:26:41;;;;;;;18.00;10.57;;;;;;;;;;5083007;28;20074;-73
2023/07/05 03:29:08;;;;;;;17.98;10.48;;;;;;;;;;5086937;28;20490;-73
2023/07/05 03:31:34;;;;;;;16.50;10.23;;;;;;;;;;5089944;28;20045;-73
2023/07/05 03:34:00;;;;;;;16.50;10.23;;;;;;;;;;5060184;28;20052;-73
2023/07/05 03:36:26;;;;;;;16.52;9.68;;;;;;;;;;5079688;28;20044;-73
2023/07/05 03:38:52;;;;;;;15.85;10.52;;;;;;;;;;5089479;28;20044;-74
2023/07/05 03:41:20;;;;;;;17.58;10.10;;;;;;;;;;5077946;28;20139;-73
2023/07/05 03:43:55;;;;;;;14.35;10.38;;;;;;;;;;5099173;28;20502;-73
2023/07/05 03:46:21;;;;;;;14.85;9.65;;;;;;;;;;5078754;28;20048;-73
2023/07/05 03:48:47;;;;;;;16.30;9.38;;;;;;;;;;5082810;28;20051;-74
2023/07/05 03:51:15;;;;;;;17.52;10.15;;;;;;;;;;5093475;28;20133;-73
2023/07/05 03:53:41;;;;;;;16.83;10.20;;;;;;;;;;5081797;28;20083;-73
2023/07/05 03:56:08;;;;;;;15.75;10.35;;;;;;;;;;5087265;28;20127;-72
2023/07/05 03:58:34;;;;;;;16.00;10.60;;;;;;;;;;5083970;28;20047;-73
2023/07/05 04:01:04;;;;;;;16.25;10.40;;;;;;;;;;5078284;28;20469;-73
2023/07/05 04:03:31;;;;;;;14.98;10.25;;;;;;;;;;5078371;28;20052;-73
2023/07/05 04:05:57;;;;;;;16.05;10.85;;;;;;;;;;5080546;28;20097;-74
2023/07/05 04:08:23;;;;;;;12.82;9.00;;;;;;;;;;5082475;28;20128;-74
2023/07/05 04:10:49;;;;;;;16.40;9.57;;;;;;;;;;5090243;28;20052;-73
2023/07/05 04:13:16;;;;;;;16.00;10.02;;;;;;;;;;5082106;28;20049;-73
2023/07/05 04:15:42;;;;;;;13.95;9.70;;;;;;;;;;5081721;28;20044;-73
2023/07/05 04:18:08;;;;;;;12.35;8.55;;;;;;;;;;5081024;28;20044;-73
2023/07/05 04:20:36;;;;;;;14.10;9.02;;;;;;;;;;5091091;28;20036;-72
2023/07/05 04:23:02;;;;;;;15.00;8.38;;;;;;;;;;5099232;28;20052;-74
2023/07/05 04:25:28;;;;;;;11.68;8.65;;;;;;;;;;5098353;28;20554;-74
2023/07/05 04:27:54;;;;;;;13.13;8.65;;;;;;;;;;5097682;28;20093;-74
2023/07/05 04:30:20;;;;;;;14.23;9.07;;;;;;;;;;5097967;28;20049;-73
2023/07/05 04:32:46;;;;;;;12.23;8.85;;;;;;;;;;5079722;28;20044;-74
2023/07/05 04:35:13;;;;;;;12.70;7.90;;;;;;;;;;5078205;28;20040;-73
2023/07/05 04:37:39;;;;;;;17.55;8.35;;;;;;;;;;5084191;28;20043;-73
2023/07/05 04:40:05;;;;;;;11.65;8.48;;;;;;;;;;5077279;28;20044;-73
2023/07/05 04:42:31;;;;;;;13.15;7.82;;;;;;;;;;5075688;28;20123;-73
2023/07/05 04:44:57;;;;;;;12.55;7.50;;;;;;;;;;5092526;28;20077;-74
2023/07/05 04:47:26;;;;;;;11.05;7.00;;;;;;;;;;5117362;28;20436;-74
2023/07/05 04:49:52;;;;;;;10.65;7.03;;;;;;;;;;5093927;28;20115;-74
2023/07/05 04:52:18;;;;;;;13.88;6.22;;;;;;;;;;5079268;28;20087;-74
2023/07/05 04:54:44;;;;;;;8.90;5.85;;;;;;;;;;5077589;28;20044;-73
2023/07/05 04:57:10;;;;;;;11.70;5.75;;;;;;;;;;5091825;28;20049;-73
2023/07/05 04:59:38;;;;;;;7.85;4.38;;;;;;;;;;5085884;28;20062;-73
2023/07/05 05:02:05;;;;;;;8.23;4.05;;;;;;;;;;5089346;28;20048;-74
2023/07/05 05:04:31;;;;;;;6.75;3.85;;;;;;;;;;5077309;28;20063;-74
2023/07/05 05:06:57;;;;;;;7.40;3.53;;;;;;;;;;5085199;28;20036;-74
2023/07/05 05:09:23;;;;;;;7.20;4.05;;;;;;;;;;5093717;28;20054;-73
2023/07/05 05:11:49;;;;;;;8.20;3.65;;;;;;;;;;5078830;28;20048;-73
2023/07/05 05:14:15;;;;;;;6.78;4.35;;;;;;;;;;5081309;28;20139;-73
2023/07/05 05:16:41;;;;;;;7.82;4.35;;;;;;;;;;5089261;28;20051;-73
2023/07/05 05:19:07;;;;;;;6.30;3.67;;;;;;;;;;5080289;28;20536;-72
2023/07/05 05:21:33;;;;;;;7.68;4.22;;;;;;;;;;5090929;28;20040;-73
2023/07/05 05:23:59;;;;;;;6.30;3.78;;;;;;;;;;5091058;28;20060;-73
2023/07/05 05:26:25;;;;;;;7.20;4.05;;;;;;;;;;5095823;28;20040;-74
2023/07/05 05:28:54;;;;;;;8.43;3.67;;;;;;;;;;5092316;28;20128;-74
2023/07/05 05:31:20;;;;;;;8.05;4.18;;;;;;;;;;5088631;28;20044;-74
2023/07/05 05:33:46;;;;;;;7.95;4.00;;;;;;;;;;5094489;28;20047;-74
2023/07/05 05:36:13;;;;;;;8.48;4.13;;;;;;;;;;5091754;28;20040;-74
2023/07/05 05:38:42;;;;;;;8.05;4.00;;;;;;;;;;5076696;28;20044;-73
2023/07/05 05:41:10;;;;;;;7.53;3.85;;;;;;;;;;5095534;28;20478;-74
2023/07/05 05:43:36;;;;;;;7.25;3.80;;;;;;;;;;5098687;28;20562;-73
2023/07/05 05:46:02;;;;;;;6.72;3.50;;;;;;;;;;5090547;28;20104;-73
2023/07/05 05:48:28;;;;;;;7.47;3.65;;;;;;;;;;5079734;28;20041;-74
2023/07/05 05:50:54;;;;;;;7.78;3.70;;;;;;;;;;5079746;28;20510;-74
2023/07/05 05:53:20;;;;;;;8.43;3.60;;;;;;;;;;5098507;28;20450;-74
2023/07/05 05:55:47;;;;;;;8.15;3.90;;;;;;;;;;5089970;28;20032;-73
2023/07/05 05:58:13;;;;;;;7.38;3.60;;;;;;;;;;5082838;28;20074;-73
2023/07/05 06:00:39;;;;;;;6.47;3.70;;;;;;;;;;5085545;28;20116;-74
2023/07/05 06:03:05;;;;;;;7.38;3.50;;;;;;;;;;5079818;28;20052;-74
2023/07/05 06:05:33;;;;;;;8.13;3.25;;;;;;;;;;5084099;28;20040;-74
2023/07/05 06:07:59;;;;;;;7.13;3.42;;;;;;;;;;5084721;28;20099;-73
2023/07/05 06:10:25;;;;;;;6.80;3.25;;;;;;;;;;5086672;28;20147;-73
2023/07/05 06:12:51;;;;;;;8.20;3.35;;;;;;;;;;5084607;28;20037;-74
2023/07/05 06:15:17;;;;;;;7.13;3.42;;;;;;;;;;5079202;28;20401;-74
2023/07/05 06:17:43;;;;;;;6.78;3.50;;;;;;;;;;5081119;28;20041;-74
2023/07/05 06:20:10;;;;;;;8.43;3.78;;;;;;;;;;5090301;28;20045;-74
2023/07/05 06:22:36;;;;;;;7.43;3.60;;;;;;;;;;5080761;28;20041;-74
2023/07/05 06:25:03;;;;;;;7.43;3.75;;;;;;;;;;5085343;28;20051;-74
2023/07/05 06:27:29;;;;;;;7.63;3.70;;;;;;;;;;5098534;28;20040;-74
2023/07/05 06:29:55;;;;;;;7.38;3.50;;;;;;;;;;5089283;28;20051;-74
2023/07/05 06:32:21;;;;;;;7.05;3.58;;;;;;;;;;5094115;28;20078;-74
2023/07/05 06:34:47;;;;;;;7.32;3.70;;;;;;;;;;5094038;28;20044;-74
2023/07/05 06:37:14;;;;;;;7.43;3.60;;;;;;;;;;5084557;28;20047;-73
2023/07/05 06:39:41;;;;;;;6.85;3.55;;;;;;;;;;5084137;28;20041;-74
2023/07/05 06:42:07;;;;;;;6.82;3.70;;;;;;;;;;5083769;28;20048;-73
2023/07/05 06:44:34;;;;;;;6.95;3.92;;;;;;;;;;5086774;28;20458;-74
2023/07/05 06:47:00;;;;;;;7.20;3.83;;;;;;;;;;5086093;28;20347;-74
2023/07/05 06:49:26;;;;;;;7.78;4.13;;;;;;;;;;5099200;28;20134;-77
2023/07/05 06:51:53;;;;;;;7.85;3.53;;;;;;;;;;5094020;28;20040;-74
2023/07/05 06:54:20;;;;;;;7.47;3.53;;;;;;;;;;5094837;28;20054;-74
2023/07/05 06:56:46;;;;;;;9.73;4.20;;;;;;;;;;5099820;28;20054;-74
2023/07/05 06:59:12;;;;;;;9.88;4.13;;;;;;;;;;5099426;28;20089;-74
2023/07/05 07:01:38;;;;;;;14.63;4.28;;;;;;;;;;5106511;28;20126;-74
2023/07/05 07:04:07;;;;;;;14.60;4.82;;;;;;;;;;5100572;28;20113;-74
2023/07/05 07:06:36;;;;;;;8.77;3.47;;;;;;;;;;5102498;28;20165;-74
2023/07/05 07:09:04;;;;;;;10.98;4.05;;;;;;;;;;5085686;28;20044;-74
2023/07/05 07:11:31;;;;;;;11.15;3.63;;;;;;;;;;5085080;28;20135;-73
2023/07/05 07:13:57;;;;;;;11.05;4.20;;;;;;;;;;5090230;28;20102;-76
2023/07/05 07:16:23;;;;;;;11.75;4.07;;;;;;;;;;5092707;28;20226;-74
2023/07/05 07:18:50;;;;;;;6.88;3.60;;;;;;;;;;5082989;28;20074;-73
2023/07/05 07:21:17;;;;;;;14.88;4.13;;;;;;;;;;5081056;28;20044;-74
2023/07/05 07:23:45;;;;;;;7.85;3.70;;;;;;;;;;5088895;28;20109;-74
2023/07/05 07:26:13;;;;;;;6.50;3.45;;;;;;;;;;5100032;28;20044;-74
2023/07/05 07:28:39;;;;;;;9.40;3.65;;;;;;;;;;5088186;28;20075;-75
2023/07/05 07:31:09;;;;;;;10.88;4.13;;;;;;;;;;5089192;28;20044;-74
2023/07/05 07:33:35;;;;;;;8.60;3.30;;;;;;;;;;5092003;28;20130;-74
2023/07/05 07:36:14;;;;;;;11.52;3.60;;;;;;;;;;5099083;28;20047;-73
2023/07/05 07:38:41;;;;;;;7.60;4.10;;;;;;;;;;5087284;28;20528;-74
2023/07/05 07:41:14;;;;;;;6.72;3.17;;;;;;;;;;5099410;28;20044;-74
2023/07/05 07:43:40;;;;;;;8.50;3.90;;;;;;;;;;5092488;28;20040;-74
2023/07/05 07:46:13;;;;;;;8.45;3.53;;;;;;;;;;5087286;28;20039;-73
2023/07/05 07:48:40;;;;;;;12.52;3.72;;;;;;;;;;5101942;28;20541;-74
2023/07/05 07:51:06;;;;;;;9.70;3.25;;;;;;;;;;5093354;28;20123;-73
2023/07/05 07:53:32;;;;;;;8.75;3.20;;;;;;;;;;5093795;28;20458;-73
2023/07/05 07:55:58;;;;;;;7.47;3.08;;;;;;;;;;5085741;28;20062;-74
2023/07/05 07:58:25;;;;;;;6.95;2.85;;;;;;;;;;5091081;28;20098;-75
2023/07/05 08:00:51;;;;;;;6.25;2.70;;;;;;;;;;5092336;28;20062;-74
2023/07/05 08:03:18;;;;;;;13.80;3.30;;;;;;;;;;5089227;28;21010;-74
2023/07/05 08:05:44;;;;;;;10.48;2.30;;;;;;;;;;5089188;28;20045;-73
2023/07/05 08:08:10;;;;;;;5.65;1.60;;;;;;;;;;5079107;28;20041;-74
2023/07/05 08:10:36;;;;;;;6.65;1.45;;;;;;;;;;5096185;28;20102;-74
2023/07/05 08:13:02;;;;;;;4.43;1.63;;;;;;;;;;5098233;28;20063;-73
2023/07/05 08:15:28;;;;;;;3.95;1.30;;;;;;;;;;5094305;28;20108;-73
2023/07/05 08:17:56;;;;;;;6.90;1.70;;;;;;;;;;5083010;28;20056;-75
2023/07/05 08:20:22;;;;;;;4.53;1.70;;;;;;;;;;5091525;28;20387;-74
2023/07/05 08:22:48;;;;;;;5.55;1.70;;;;;;;;;;5093005;28;20050;-75
2023/07/05 08:25:15;;;;;;;5.80;1.40;;;;;;;;;;5085571;28;20052;-74
2023/07/05 08:27:41;;;;;;;3.08;0.93;;;;;;;;;;5094218;28;20119;-73
2023/07/05 08:30:07;;;;;;;5.35;1.13;;;;;;;;;;5100283;28;20047;-74
2023/07/05 08:32:33;;;;;;;4.28;0.93;;;;;;;;;;5089312;28;20449;-75
2023/07/05 08:34:59;;;;;;;3.33;0.90;;;;;;;;;;5091866;28;20054;-74
2023/07/05 08:37:25;;;;;;;4.25;1.10;;;;;;;;;;5089120;28;20461;-75
2023/07/05 08:39:51;;;;;;;4.80;1.10;;;;;;;;;;5082651;28;20044;-73
2023/07/05 08:42:31;;;;;;;2.75;0.90;;;;;;;;;;5087649;28;20051;-74
2023/07/05 08:45:20;;;;;;;3.35;0.90;;;;;;;;;;5081038;28;20067;-74
2023/07/05 08:47:52;;;;;;;3.00;0.88;;;;;;;;;;5090334;28;20079;-74
2023/07/05 08:50:18;;;;;;;4.32;1.13;;;;;;;;;;5079503;28;20040;-73
2023/07/05 08:52:47;;;;;;;3.78;1.10;;;;;;;;;;5083241;28;20380;-74
2023/07/05 08:55:17;;;;;;;4.75;1.00;;;;;;;;;;5088432;28;20036;-73
2023/07/05 08:57:56;;;;;;;4.45;1.20;;;;;;;;;;5085017;28;20052;-73
2023/07/05 09:00:37;;;;;;;3.35;0.90;;;;;;;;;;5091535;28;20117;-74
2023/07/05 09:03:08;;;;;;;6.93;1.13;;;;;;;;;;5084759;28;20061;-73
2023/07/05 09:05:37;;;;;;;3.55;1.00;;;;;;;;;;5091955;28;20040;-72
2023/07/05 09:08:09;;;;;;;2.22;0.80;;;;;;;;;;5091580;28;20063;-73
2023/07/05 09:10:41;;;;;;;4.47;1.00;;;;;;;;;;5085759;28;20037;-74
2023/07/05 09:13:16;;;;;;;5.65;1.20;;;;;;;;;;5095779;28;20040;-74
2023/07/05 09:16:00;;;;;;;5.28;0.95;;;;;;;;;;5097180;28;20048;-74
2023/07/05 09:18:52;;;;;;;5.85;1.38;;;;;;;;;;5097145;28;20044;-73
2023/07/05 09:21:19;;;;;;;5.53;1.08;;;;;;;;;;5100805;28;20048;-73
2023/07/05 09:23:50;;;;;;;6.28;1.30;;;;;;;;;;5099192;28;20493;-73
2023/07/05 09:26:19;;;;;;;4.35;1.05;;;;;;;;;;5102844;28;20393;-74
2023/07/05 09:28:52;;;;;;;5.25;1.02;;;;;;;;;;5097944;28;20048;-74
2023/07/05 09:31:26;;;;;;;5.55;1.30;;;;;;;;;;5065106;28;20040;-73
2023/07/05 09:33:59;;;;;;;6.90;1.27;;;;;;;;;;5091833;28;20051;-74
2023/07/05 09:36:27;;;;;;;5.05;1.33;;;;;;;;;;5100977;28;20048;-75
2023/07/05 09:38:57;;;;;;;3.22;1.20;;;;;;;;;;5090737;28;20079;-74
2023/07/05 09:41:43;;;;;;;6.75;1.35;;;;;;;;;;5090201;28;20082;-74
2023/07/05 09:44:09;;;;;;;5.88;1.40;;;;;;;;;;5087510;28;20587;-74
2023/07/05 09:46:36;;;;;;;6.47;1.48;;;;;;;;;;5091661;28;20059;-75
2023/07/05 09:49:03;;;;;;;7.75;1.70;;;;;;;;;;5089520;28;20059;-75
2023/07/05 09:51:30;;;;;;;4.95;1.40;;;;;;;;;;5080748;28;20151;-74
2023/07/05 09:53:59;;;;;;;5.15;1.40;;;;;;;;;;5083867;28;20049;-75
2023/07/05 09:56:28;;;;;;;4.75;1.50;;;;;;;;;;5082816;28;20140;-74
2023/07/05 09:59:10;;;;;;;5.75;1.60;;;;;;;;;;5081503;28;20107;-74
2023/07/05 10:01:40;;;;;;;7.35;1.80;;;;;;;;;;5087337;28;20044;-74
2023/07/05 10:04:08;;;;;;;5.82;1.58;;;;;;;;;;5089570;28;20140;-75
2023/07/05 10:06:37;;;;;;;6.30;1.63;;;;;;;;;;5100757;28;20482;-74
2023/07/05 10:09:11;;;;;;;7.63;2.00;;;;;;;;;;5090658;28;20070;-74
2023/07/05 10:11:42;;;;;;;8.75;1.45;;;;;;;;;;5096400;28;20036;-74
2023/07/05 10:14:10;;;;;;;9.10;2.03;;;;;;;;;;5085044;28;20041;-73
2023/07/05 10:16:46;;;;;;;7.57;1.70;;;;;;;;;;5086923;28;20048;-74
2023/07/05 10:19:24;;;;;;;6.28;1.65;;;;;;;;;;5094514;28;20051;-74
2023/07/05 10:22:01;;;;;;;10.63;1.90;;;;;;;;;;5086114;28;20040;-74
2023/07/05 10:24:28;;;;;;;7.18;1.63;;;;;;;;;;5090009;28;20064;-74
2023/07/05 10:27:08;;;;;;;8.25;1.92;;;;;;;;;;5092249;28;20528;-75
2023/07/05 10:29:36;;;;;;;8.43;1.52;;;;;;;;;;5090293;28;20402;-74
2023/07/05 10:32:02;;;;;;;8.68;1.85;;;;;;;;;;5091843;28;20605;-75
2023/07/05 10:34:28;;;;;;;5.78;1.30;;;;;;;;;;5082700;28;20041;-75
2023/07/05 10:36:54;;;;;;;6.60;1.95;;;;;;;;;;5084138;28;20071;-74
2023/07/05 10:39:26;;;;;;;9.15;1.42;;;;;;;;;;5084094;28;20050;-74
2023/07/05 10:41:52;;;;;;;;;;;;;;;;;;5100970;28;20052;-75
2023/07/05 10:44:21;;;;;;;6.15;1.50;;;;;;;;;;5098736;28;19920;-74
2023/07/05 10:46:48;;;;;;;7.55;1.70;;;;;;;;;;5084646;28;20060;-74
2023/07/05 10:49:16;;;;;;;5.53;1.58;;;;;;;;;;5094360;28;20048;-74
2023/07/05 10:51:47;;;;;;;7.15;1.35;;;;;;;;;;5100407;28;20502;-74
2023/07/05 10:54:31;;;;;;;7.25;1.48;;;;;;;;;;5083016;28;20037;-75
2023/07/05 10:56:59;;;;;;;8.38;1.75;;;;;;;;;;5089033;28;20454;-75
2023/07/05 10:59:35;;;;;;;7.40;1.55;;;;;;;;;;5083055;28;20086;-73
2023/07/05 11:02:19;;;;;;;9.25;1.70;;;;;;;;;;5086698;28;20055;-74
2023/07/05 11:04:48;;;;;;;5.93;1.50;;;;;;;;;;5083288;28;20058;-74
2023/07/05 11:07:14;;;;;;;6.70;2.15;;;;;;;;;;5087608;28;20048;-75
2023/07/05 11:09:41;;;;;;;5.70;1.65;;;;;;;;;;5102849;28;20043;-74
2023/07/05 11:12:14;;;;;;;7.10;1.73;;;;;;;;;;5100002;28;20079;-74
2023/07/05 11:14:41;;;;;;;6.88;1.80;;;;;;;;;;5091722;28;20050;-74
2023/07/05 11:17:13;;;;;;;7.97;1.88;;;;;;;;;;5093981;28;20045;-74
2023/07/05 11:19:39;;;;;;;7.32;1.65;;;;;;;;;;5087021;28;20579;-74
2023/07/05 11:22:06;;;;;;;5.53;1.35;;;;;;;;;;5090512;28;20100;-75
2023/07/05 11:24:32;;;;;;;5.88;1.50;;;;;;;;;;5089086;28;20128;-74
2023/07/05 11:26:59;;;;;;;5.30;1.50;;;;;;;;;;5093346;28;20059;-75
2023/07/05 11:29:25;;;;;;;6.45;1.80;;;;;;;;;;5090422;28;20082;-74
2023/07/05 11:31:54;;;;;;;7.40;1.60;;;;;;;;;;5081430;28;20045;-75
2023/07/05 11:34:23;;;;;;;6.80;1.70;;;;;;;;;;5082852;28;20185;-74
2023/07/05 11:36:50;;;;;;;7.03;1.45;;;;;;;;;;5082609;28;20048;-73
2023/07/05 11:39:32;;;;;;;7.45;1.58;;;;;;;;;;5088886;28;20055;-74
2023/07/05 11:41:58;;;;;;;5.68;1.10;;;;;;;;;;5102093;28;20055;-74
2023/07/05 11:44:30;;;;;;;5.68;1.27;;;;;;;;;;5098282;28;20044;-75
2023/07/05 11:46:57;;;;;;;6.80;1.27;;;;;;;;;;5098619;28;20132;-74
2023/07/05 11:49:27;;;;;;;6.47;1.50;;;;;;;;;;5086719;28;20044;-74
2023/07/05 11:51:56;;;;;;;7.70;1.50;;;;;;;;;;5083370;28;20101;-74
2023/07/05 11:54:26;;;;;;;5.13;1.38;;;;;;;;;;5081767;28;20055;-73
2023/07/05 11:56:53;;;;;;;7.38;1.50;;;;;;;;;;5086784;28;20048;-75
2023/07/05 11:59:21;;;;;;;7.13;1.50;;;;;;;;;;5084994;28;20123;-74
2023/07/05 12:01:47;;;;;;;4.15;1.10;;;;;;;;;;5092614;28;20079;-75
2023/07/05 12:04:17;;;;;;;7.55;1.77;;;;;;;;;;5091859;28;20051;-74
2023/07/05 12:06:45;;;;;;;5.63;1.42;;;;;;;;;;5094683;28;20040;-73
2023/07/05 12:09:25;;;;;;;6.38;1.50;;;;;;;;;;5094103;28;20809;-74
2023/07/05 12:11:58;;;;;;;9.27;1.77;;;;;;;;;;5090306;28;20463;-75
2023/07/05 12:14:25;;;;;;;4.97;1.50;;;;;;;;;;5086230;28;20069;-74
2023/07/05 12:16:52;;;;;;;6.47;1.48;;;;;;;;;;5086574;28;20036;-75
2023/07/05 12:19:22;;;;;;;7.88;1.98;;;;;;;;;;5080927;28;20052;-74
2023/07/05 12:21:55;;;;;;;8.60;1.58;;;;;;;;;;5090234;28;20067;-75
2023/07/05 12:24:21;;;;;;;7.25;1.73;;;;;;;;;;5090920;28;20124;-74
2023/07/05 12:26:47;;;;;;;8.35;1.80;;;;;;;;;;5091317;28;20106;-75
2023/07/05 12:29:31;;;;;;;6.32;1.67;;;;;;;;;;5086903;28;20058;-73
2023/07/05 12:32:08;;;;;;;7.75;1.88;;;;;;;;;;5092911;28;20048;-74
2023/07/05 12:34:34;;;;;;;6.60;1.70;;;;;;;;;;5090659;28;20043;-75
2023/07/05 12:37:00;;;;;;;7.53;1.75;;;;;;;;;;5092071;28;20048;-74
2023/07/05 12:39:26;;;;;;;9.75;2.05;;;;;;;;;;5086326;28;20882;-75
2023/07/05 12:42:08;;;;;;;8.63;1.90;;;;;;;;;;5090726;28;20059;-74
2023/07/05 12:44:35;;;;;;;9.10;1.95;;;;;;;;;;5094723;28;20040;-74
2023/07/05 12:47:17;;;;;;;9.05;2.03;;;;;;;;;;5089260;28;20036;-74
2023/07/05 12:49:43;;;;;;;10.27;2.15;;;;;;;;;;5085113;28;20104;-74
2023/07/05 12:52:18;;;;;;;6.72;1.60;;;;;;;;;;5090657;28;20050;-73
2023/07/05 12:54:44;;;;;;;8.40;2.10;;;;;;;;;;5095171;28;20072;-75
2023/07/05 12:57:17;;;;;;;9.70;2.63;;;;;;;;;;5095552;28;20049;-74
2023/07/05 12:59:44;;;;;;;7.95;2.20;;;;;;;;;;5087149;28;20091;-74
2023/07/05 13:02:13;;;;;;;7.93;1.85;;;;;;;;;;5088930;28;20104;-74
2023/07/05 13:04:43;;;;;;;8.38;2.08;;;;;;;;;;5088823;28;20047;-75
2023/07/05 13:07:15;;;;;;;8.70;2.03;;;;;;;;;;5093239;28;20096;-74
2023/07/05 13:09:41;;;;;;;9.35;2.13;;;;;;;;;;5088284;28;20109;-75
2023/07/05 13:12:09;;;;;;;9.93;2.30;;;;;;;;;;5089701;28;20054;-75
2023/07/05 13:14:37;;;;;;;9.02;2.30;;;;;;;;;;5089310;28;20047;-74
2023/07/05 13:17:16;;;;;;;9.38;2.53;;;;;;;;;;5090809;28;20036;-74
2023/07/05 13:19:47;;;;;;;9.48;2.38;;;;;;;;;;5086383;28;20052;-75
2023/07/05 13:22:14;;;;;;;11.07;2.38;;;;;;;;;;5088633;28;20040;-74
2023/07/05 13:24:45;;;;;;;10.27;2.50;;;;;;;;;;5089454;28;20442;-74
2023/07/05 13:27:20;;;;;;;11.00;2.58;;;;;;;;;;5090520;28;20148;-74
2023/07/05 13:29:47;;;;;;;11.65;2.83;;;;;;;;;;5086715;28;20044;-76
2023/07/05 13:32:24;;;;;;;14.57;3.10;;;;;;;;;;5085334;28;20079;-74
2023/07/05 13:34:50;;;;;;;8.55;2.50;;;;;;;;;;5088784;28;20080;-74
2023/07/05 13:37:18;;;;;;;10.75;2.90;;;;;;;;;;5094031;28;20149;-74
2023/07/05 13:39:45;;;;;;;10.70;2.95;;;;;;;;;;5091565;28;20078;-73
2023/07/05 13:42:11;;;;;;;13.63;2.83;;;;;;;;;;5088748;28;20080;-75
2023/07/05 13:44:38;;;;;;;12.88;3.13;;;;;;;;;;5088213;28;20044;-74
2023/07/05 13:47:04;;;;;;;11.88;2.97;;;;;;;;;;5087108;28;20090;-75
2023/07/05 13:49:30;;;;;;;13.10;2.72;;;;;;;;;;5088806;28;20068;-74
2023/07/05 13:51:57;;;;;;;8.45;2.63;;;;;;;;;;5088342;28;20093;-75
2023/07/05 13:54:24;;;;;;;9.18;2.30;;;;;;;;;;5087970;28;20044;-74
2023/07/05 13:56:50;;;;;;;11.60;3.22;;;;;;;;;;5095387;28;20064;-74
2023/07/05 13:59:18;;;;;;;8.77;2.17;;;;;;;;;;5092764;28;20048;-74
2023/07/05 14:01:44;;;;;;;9.85;2.85;;;;;;;;;;5088352;28;20116;-74
2023/07/05 14:04:13;;;;;;;8.20;2.53;;;;;;;;;;5093617;28;20109;-75
2023/07/05 14:06:40;;;;;;;7.80;2.80;;;;;;;;;;5091185;28;20036;-75
2023/07/05 14:09:06;;;;;;;7.32;2.47;;;;;;;;;;5095532;28;20047;-75
2023/07/05 14:11:37;;;;;;;7.25;2.63;;;;;;;;;;5095049;28;20045;-74
2023/07/05 14:14:03;;;;;;;9.10;3.00;;;;;;;;;;5094724;28;20056;-74
2023/07/05 14:16:29;;;;;;;7.45;2.80;;;;;;;;;;5093725;28;20885;-73
2023/07/05 14:18:55;;;;;;;10.77;2.97;;;;;;;;;;5084610;28;20053;-74
2023/07/05 14:21:25;;;;;;;10.20;2.85;;;;;;;;;;5086660;28;20047;-74
2023/07/05 14:23:51;;;;;;;8.63;3.08;;;;;;;;;;5071359;28;20115;-75
2023/07/05 14:26:17;;;;;;;9.23;3.20;;;;;;;;;;5092389;28;20495;-74
2023/07/05 14:28:44;;;;;;;8.30;2.70;;;;;;;;;;5096012;28;20706;-75
2023/07/05 14:31:11;;;;;;;9.20;2.58;;;;;;;;;;5091062;28;20047;-73
2023/07/05 14:33:37;;;;;;;11.60;3.00;;;;;;;;;;5091085;28;20048;-74
2023/07/05 14:36:03;;;;;;;9.48;3.42;;;;;;;;;;5090808;28;20043;-74
2023/07/05 14:38:29;;;;;;;12.35;2.90;;;;;;;;;;5091013;28;20033;-74
2023/07/05 14:40:56;;;;;;;10.23;3.10;;;;;;;;;;5092367;28;20119;-75
2023/07/05 14:43:22;;;;;;;7.28;2.20;;;;;;;;;;5093935;28;20044;-73
2023/07/05 14:45:49;;;;;;;7.78;2.65;;;;;;;;;;5092543;28;20050;-75